createdAt,value
2018-03-21T00:00:30.021Z,-1.70
2018-03-21T00:01:03.706Z,-1.70
2018-03-21T00:01:37.384Z,-1.70
2018-03-21T00:02:11.061Z,-1.70
2018-03-21T00:02:44.734Z,-1.70
2018-03-21T00:03:18.408Z,-1.70
2018-03-21T00:03:52.892Z,-1.80
2018-03-21T00:04:26.566Z,-1.70
2018-03-21T00:05:00.239Z,-1.70
2018-03-21T00:05:34.360Z,-1.80
2018-03-21T00:06:08.046Z,-1.80
2018-03-21T00:06:41.716Z,-1.80
2018-03-21T00:07:15.389Z,-1.80
2018-03-21T00:07:49.073Z,-1.80
2018-03-21T00:08:23.520Z,-1.80
2018-03-21T00:08:57.198Z,-1.80
2018-03-21T00:09:30.873Z,-1.80
2018-03-21T00:10:04.219Z,-1.80
2018-03-21T00:10:38.682Z,-1.80
2018-03-21T00:11:12.358Z,-1.80
2018-03-21T00:11:46.021Z,-1.80
2018-03-21T00:12:19.714Z,-1.80
2018-03-21T00:12:53.402Z,-1.80
2018-03-21T00:13:27.843Z,-1.80
2018-03-21T00:14:01.534Z,-1.80
2018-03-21T00:14:35.199Z,-1.80
2018-03-21T00:15:08.864Z,-1.80
2018-03-21T00:15:42.554Z,-1.80
2018-03-21T00:16:16.991Z,-1.80
2018-03-21T00:16:50.673Z,-1.80
2018-03-21T00:17:24.354Z,-1.80
2018-03-21T00:17:58.806Z,-1.80
2018-03-21T00:18:32.474Z,-1.80
2018-03-21T00:19:06.172Z,-1.80
2018-03-21T00:19:39.840Z,-1.80
2018-03-21T00:20:13.524Z,-1.80
2018-03-21T00:20:48.321Z,-1.80
2018-03-21T00:21:22.766Z,-1.80
2018-03-21T00:21:56.445Z,-1.80
2018-03-21T00:22:30.123Z,-1.80
2018-03-21T00:23:04.575Z,-1.80
2018-03-21T00:23:39.030Z,-1.80
2018-03-21T00:24:13.472Z,-1.80
2018-03-21T00:24:47.150Z,-1.90
2018-03-21T00:25:20.813Z,-1.80
2018-03-21T00:25:55.480Z,-1.80
2018-03-21T00:26:29.174Z,-1.90
2018-03-21T00:27:02.870Z,-1.90
2018-03-21T00:27:36.575Z,-1.80
2018-03-21T00:28:10.281Z,-1.90
2018-03-21T00:28:44.128Z,-1.90
2018-03-21T00:29:17.791Z,-1.90
2018-03-21T00:29:51.468Z,-1.90
2018-03-21T00:30:25.145Z,-1.90
2018-03-21T00:30:59.155Z,-1.90
2018-03-21T00:31:32.888Z,-1.90
2018-03-21T00:32:06.559Z,-1.90
2018-03-21T00:32:40.250Z,-1.90
2018-03-21T00:33:13.922Z,-1.90
2018-03-21T00:33:47.602Z,-1.90
2018-03-21T00:34:22.048Z,-1.90
2018-03-21T00:34:55.716Z,-1.90
2018-03-21T00:35:29.394Z,-1.90
2018-03-21T00:36:03.874Z,-1.90
2018-03-21T00:36:37.554Z,-1.90
2018-03-21T00:37:11.228Z,-1.90
2018-03-21T00:37:44.914Z,-1.90
2018-03-21T00:38:18.584Z,-1.90
2018-03-21T00:38:52.254Z,-1.90
2018-03-21T00:39:25.750Z,-1.90
2018-03-21T00:39:59.457Z,-1.90
2018-03-21T00:40:34.050Z,-1.90
2018-03-21T00:41:07.743Z,-1.90
2018-03-21T00:41:41.409Z,-1.90
2018-03-21T00:42:15.507Z,-1.90
2018-03-21T00:42:49.995Z,-1.90
2018-03-21T00:43:23.812Z,-1.90
2018-03-21T00:43:58.234Z,-1.90
2018-03-21T00:44:31.910Z,-1.90
2018-03-21T00:45:06.338Z,-1.90
2018-03-21T00:45:40.018Z,-1.90
2018-03-21T00:46:13.747Z,-1.90
2018-03-21T00:46:47.434Z,-1.90
2018-03-21T00:47:21.116Z,-1.90
2018-03-21T00:47:54.778Z,-1.90
2018-03-21T00:48:28.440Z,-1.90
2018-03-21T00:49:02.869Z,-1.90
2018-03-21T00:49:37.316Z,-1.90
2018-03-21T00:50:11.013Z,-1.90
2018-03-21T00:50:44.688Z,-1.90
2018-03-21T00:51:18.748Z,-1.90
2018-03-21T00:51:53.196Z,-1.90
2018-03-21T00:52:26.923Z,-1.90
2018-03-21T00:53:01.058Z,-1.90
2018-03-21T00:53:34.747Z,-1.90
2018-03-21T00:54:08.439Z,-1.90
2018-03-21T00:54:42.126Z,-1.90
2018-03-21T00:55:15.868Z,-1.90
2018-03-21T00:55:49.577Z,-1.90
2018-03-21T00:56:23.332Z,-1.90
2018-03-21T00:56:57.034Z,-1.90
2018-03-21T00:57:30.718Z,-1.90
2018-03-21T00:58:04.866Z,-1.90
2018-03-21T00:58:39.326Z,-1.90
2018-03-21T00:59:13.016Z,-1.90
2018-03-21T00:59:47.457Z,-1.90
2018-03-21T01:00:21.153Z,-1.90
2018-03-21T01:00:55.600Z,-1.90
2018-03-21T01:01:29.299Z,-1.90
2018-03-21T01:02:02.962Z,-1.90
2018-03-21T01:02:37.065Z,-1.90
2018-03-21T01:03:10.750Z,-1.90
2018-03-21T01:03:44.408Z,-1.90
2018-03-21T01:04:18.076Z,-1.90
2018-03-21T01:04:51.774Z,-1.90
2018-03-21T01:05:25.444Z,-2.00
2018-03-21T01:05:59.151Z,-2.00
2018-03-21T01:06:32.881Z,-2.00
2018-03-21T01:07:07.320Z,-2.00
2018-03-21T01:07:41.037Z,-2.00
2018-03-21T01:08:14.713Z,-2.00
2018-03-21T01:08:48.382Z,-2.00
2018-03-21T01:09:22.047Z,-2.00
2018-03-21T01:09:56.488Z,-2.00
2018-03-21T01:10:30.144Z,-2.00
2018-03-21T01:11:04.580Z,-2.00
2018-03-21T01:11:38.556Z,-2.10
2018-03-21T01:12:12.229Z,-2.10
2018-03-21T01:12:46.674Z,-2.10
2018-03-21T01:13:20.332Z,-2.10
2018-03-21T01:13:54.772Z,-2.10
2018-03-21T01:14:28.434Z,-2.10
2018-03-21T01:15:02.869Z,-2.10
2018-03-21T01:15:36.576Z,-2.10
2018-03-21T01:16:10.280Z,-2.10
2018-03-21T01:16:44.004Z,-2.10
2018-03-21T01:17:18.459Z,-2.10
2018-03-21T01:17:52.130Z,-2.10
2018-03-21T01:18:25.794Z,-2.10
2018-03-21T01:19:00.244Z,-2.10
2018-03-21T01:19:33.931Z,-2.10
2018-03-21T01:21:44.009Z,-2.10
2018-03-21T01:22:17.678Z,-2.10
2018-03-21T01:22:51.351Z,-2.10
2018-03-21T01:23:25.016Z,-2.10
2018-03-21T01:23:59.262Z,-2.20
2018-03-21T01:24:32.760Z,-2.20
2018-03-21T01:25:06.431Z,-2.20
2018-03-21T01:25:40.122Z,-2.10
2018-03-21T01:26:13.801Z,-2.20
2018-03-21T01:26:47.860Z,-2.20
2018-03-21T01:27:22.313Z,-2.20
2018-03-21T01:27:56.156Z,-2.20
2018-03-21T01:28:30.590Z,-2.20
2018-03-21T01:29:04.254Z,-2.20
2018-03-21T01:29:38.680Z,-2.20
2018-03-21T01:30:12.348Z,-2.20
2018-03-21T01:30:46.782Z,-2.20
2018-03-21T01:31:20.450Z,-2.20
2018-03-21T01:31:54.920Z,-2.20
2018-03-21T01:32:28.586Z,-2.20
2018-03-21T01:33:02.248Z,-2.20
2018-03-21T01:33:35.920Z,-2.20
2018-03-21T01:34:10.344Z,-2.20
2018-03-21T01:34:44.785Z,-2.20
2018-03-21T01:35:18.462Z,-2.30
2018-03-21T01:35:52.090Z,-2.20
2018-03-21T01:36:25.568Z,-2.20
2018-03-21T01:36:59.391Z,-2.20
2018-03-21T01:37:32.880Z,-2.20
2018-03-21T01:38:06.389Z,-2.20
2018-03-21T01:38:39.856Z,-2.20
2018-03-21T01:39:14.304Z,-2.20
2018-03-21T01:39:47.970Z,-2.30
2018-03-21T01:40:21.636Z,-2.20
2018-03-21T01:40:56.090Z,-2.30
2018-03-21T01:41:29.754Z,-2.30
2018-03-21T01:42:03.284Z,-2.30
2018-03-21T01:42:36.950Z,-2.30
2018-03-21T01:43:10.612Z,-2.30
2018-03-21T01:43:45.046Z,-2.30
2018-03-21T01:44:18.735Z,-2.30
2018-03-21T01:44:52.486Z,-2.30
2018-03-21T01:45:26.923Z,-2.30
2018-03-21T01:46:00.413Z,-2.30
2018-03-21T01:46:34.074Z,-2.30
2018-03-21T01:47:08.532Z,-2.30
2018-03-21T01:47:42.188Z,-2.30
2018-03-21T01:48:15.862Z,-2.30
2018-03-21T01:48:49.537Z,-2.30
2018-03-21T01:49:23.204Z,-2.30
2018-03-21T01:49:56.866Z,-2.30
2018-03-21T01:50:30.532Z,-2.30
2018-03-21T01:51:04.196Z,-2.30
2018-03-21T01:51:38.794Z,-2.30
2018-03-21T01:52:12.818Z,-2.30
2018-03-21T01:52:45.855Z,-2.30
2018-03-21T01:53:19.522Z,-2.30
2018-03-21T01:53:53.199Z,-2.30
2018-03-21T01:54:26.860Z,-2.30
2018-03-21T01:55:01.294Z,-2.30
2018-03-21T01:55:34.964Z,-2.30
2018-03-21T01:56:08.620Z,-2.30
2018-03-21T01:56:42.284Z,-2.40
2018-03-21T01:57:16.320Z,-2.40
2018-03-21T01:57:50.807Z,-2.40
2018-03-21T01:58:24.622Z,-2.40
2018-03-21T01:58:59.076Z,-2.40
2018-03-21T01:59:32.756Z,-2.40
2018-03-21T02:00:06.412Z,-2.40
2018-03-21T02:00:40.656Z,-2.40
2018-03-21T02:01:14.320Z,-2.40
2018-03-21T02:01:47.994Z,-2.40
2018-03-21T02:02:22.438Z,-2.40
2018-03-21T02:02:56.096Z,-2.40
2018-03-21T02:03:30.538Z,-2.40
2018-03-21T02:04:04.408Z,-2.40
2018-03-21T02:04:38.080Z,-2.40
2018-03-21T02:05:12.532Z,-2.40
2018-03-21T02:05:46.404Z,-2.40
2018-03-21T02:06:19.415Z,-2.40
2018-03-21T02:06:53.104Z,-2.40
2018-03-21T02:07:27.155Z,-2.40
2018-03-21T02:08:01.595Z,-2.40
2018-03-21T02:08:35.293Z,-2.40
2018-03-21T02:09:08.964Z,-2.40
2018-03-21T02:09:42.666Z,-2.40
2018-03-21T02:10:16.396Z,-2.40
2018-03-21T02:10:50.055Z,-2.40
2018-03-21T02:11:23.762Z,-2.40
2018-03-21T02:11:57.718Z,-2.40
2018-03-21T02:12:31.418Z,-2.40
2018-03-21T02:13:04.760Z,-2.40
2018-03-21T02:13:39.542Z,-2.40
2018-03-21T02:14:13.222Z,-2.40
2018-03-21T02:14:46.896Z,-2.40
2018-03-21T02:15:20.558Z,-2.40
2018-03-21T02:15:55.127Z,-2.40
2018-03-21T02:16:28.786Z,-2.40
2018-03-21T02:17:02.544Z,-2.40
2018-03-21T02:17:37.011Z,-2.40
2018-03-21T02:18:10.353Z,-2.50
2018-03-21T02:18:44.026Z,-2.40
2018-03-21T02:19:18.451Z,-2.40
2018-03-21T02:19:52.116Z,-2.50
2018-03-21T02:20:26.560Z,-2.50
2018-03-21T02:21:00.228Z,-2.50
2018-03-21T02:21:33.958Z,-2.40
2018-03-21T02:22:07.628Z,-2.40
2018-03-21T02:22:41.344Z,-2.50
2018-03-21T02:23:15.016Z,-2.40
2018-03-21T02:23:48.680Z,-2.50
2018-03-21T02:24:22.344Z,-2.50
2018-03-21T02:24:56.775Z,-2.50
2018-03-21T02:25:30.455Z,-2.50
2018-03-21T02:26:04.632Z,-2.50
2018-03-21T02:26:38.300Z,-2.50
2018-03-21T02:27:11.968Z,-2.50
2018-03-21T02:27:45.665Z,-2.50
2018-03-21T02:28:19.344Z,-2.50
2018-03-21T02:28:53.000Z,-2.50
2018-03-21T02:29:27.434Z,-2.50
2018-03-21T02:30:01.097Z,-2.50
2018-03-21T02:30:35.543Z,-2.50
2018-03-21T02:31:09.255Z,-2.50
2018-03-21T02:31:42.925Z,-2.50
2018-03-21T02:32:16.592Z,-2.50
2018-03-21T02:32:50.282Z,-2.50
2018-03-21T02:33:24.042Z,-2.50
2018-03-21T02:33:58.486Z,-2.50
2018-03-21T02:34:32.247Z,-2.50
2018-03-21T02:35:06.697Z,-2.50
2018-03-21T02:35:40.603Z,-2.50
2018-03-21T02:36:14.289Z,-2.50
2018-03-21T02:36:47.970Z,-2.50
2018-03-21T02:37:21.646Z,-2.50
2018-03-21T02:37:55.619Z,-2.50
2018-03-21T02:38:30.051Z,-2.50
2018-03-21T02:39:03.211Z,-2.50
2018-03-21T02:39:37.328Z,-2.50
2018-03-21T02:40:11.014Z,-2.60
2018-03-21T02:40:44.691Z,-2.50
2018-03-21T02:41:19.114Z,-2.50
2018-03-21T02:41:52.891Z,-2.50
2018-03-21T02:42:26.702Z,-2.50
2018-03-21T02:43:00.410Z,-2.50
2018-03-21T02:43:35.009Z,-2.50
2018-03-21T02:44:08.817Z,-2.50
2018-03-21T02:44:42.478Z,-2.50
2018-03-21T02:45:16.187Z,-2.50
2018-03-21T02:45:49.861Z,-2.50
2018-03-21T02:46:23.757Z,-2.50
2018-03-21T02:46:57.430Z,-2.60
2018-03-21T02:47:31.888Z,-2.60
2018-03-21T02:48:05.204Z,-2.60
2018-03-21T02:48:39.826Z,-2.60
2018-03-21T02:49:15.353Z,-2.60
2018-03-21T02:49:50.067Z,-2.60
2018-03-21T02:50:26.644Z,-2.60
2018-03-21T02:51:00.320Z,-2.60
2018-03-21T02:51:34.585Z,-2.60
2018-03-21T02:52:08.597Z,-2.60
2018-03-21T02:52:42.460Z,-2.60
2018-03-21T02:53:16.403Z,-2.60
2018-03-21T02:53:50.933Z,-2.60
2018-03-21T02:54:25.593Z,-2.60
2018-03-21T02:54:59.080Z,-2.60
2018-03-21T02:55:32.953Z,-2.60
2018-03-21T02:56:06.700Z,-2.60
2018-03-21T02:56:41.138Z,-2.60
2018-03-21T02:57:14.799Z,-2.60
2018-03-21T02:57:49.241Z,-2.60
2018-03-21T02:58:22.980Z,-2.60
2018-03-21T02:58:57.656Z,-2.60
2018-03-21T02:59:31.332Z,-2.60
2018-03-21T03:00:04.322Z,-2.60
2018-03-21T03:00:37.996Z,-2.60
2018-03-21T03:01:11.648Z,-2.60
2018-03-21T03:01:46.079Z,-2.60
2018-03-21T03:02:19.771Z,-2.60
2018-03-21T03:02:53.465Z,-2.60
2018-03-21T03:03:27.171Z,-2.60
2018-03-21T03:04:00.841Z,-2.60
2018-03-21T03:04:34.515Z,-2.60
2018-03-21T03:05:08.193Z,-2.60
2018-03-21T03:05:42.637Z,-2.60
2018-03-21T03:06:16.334Z,-2.60
2018-03-21T03:06:50.026Z,-2.60
2018-03-21T03:07:23.700Z,-2.60
2018-03-21T03:07:57.365Z,-2.60
2018-03-21T03:08:31.830Z,-2.60
2018-03-21T03:09:06.068Z,-2.60
2018-03-21T03:09:40.496Z,-2.60
2018-03-21T03:10:14.190Z,-2.70
2018-03-21T03:10:47.851Z,-2.60
2018-03-21T03:11:22.298Z,-2.60
2018-03-21T03:11:55.967Z,-2.70
2018-03-21T03:12:29.665Z,-2.60
2018-03-21T03:13:03.334Z,-2.60
2018-03-21T03:13:37.774Z,-2.70
2018-03-21T03:14:11.436Z,-2.70
2018-03-21T03:14:45.881Z,-2.70
2018-03-21T03:15:19.575Z,-2.70
2018-03-21T03:15:53.260Z,-2.70
2018-03-21T03:16:26.948Z,-2.70
2018-03-21T03:17:00.771Z,-2.70
2018-03-21T03:17:34.450Z,-2.70
2018-03-21T03:18:08.118Z,-2.70
2018-03-21T03:18:41.940Z,-2.70
2018-03-21T03:19:15.616Z,-2.70
2018-03-21T03:19:49.279Z,-2.70
2018-03-21T03:20:22.938Z,-2.70
2018-03-21T03:20:57.374Z,-2.70
2018-03-21T03:21:31.060Z,-2.70
2018-03-21T03:22:04.735Z,-2.70
2018-03-21T03:22:39.185Z,-2.70
2018-03-21T03:23:12.855Z,-2.70
2018-03-21T03:23:46.939Z,-2.70
2018-03-21T03:24:20.627Z,-2.70
2018-03-21T03:24:54.309Z,-2.70
2018-03-21T03:25:28.404Z,-2.70
2018-03-21T03:26:02.854Z,-2.70
2018-03-21T03:26:36.519Z,-2.70
2018-03-21T03:27:10.187Z,-2.70
2018-03-21T03:27:44.618Z,-2.70
2018-03-21T03:28:18.290Z,-2.70
2018-03-21T03:28:51.986Z,-2.70
2018-03-21T03:29:25.663Z,-2.70
2018-03-21T03:30:00.107Z,-2.70
2018-03-21T03:30:33.794Z,-2.70
2018-03-21T03:31:07.461Z,-2.70
2018-03-21T03:31:41.136Z,-2.70
2018-03-21T03:32:15.570Z,-2.70
2018-03-21T03:32:49.241Z,-2.70
2018-03-21T03:33:23.677Z,-2.70
2018-03-21T03:33:57.488Z,-2.70
2018-03-21T03:34:31.154Z,-2.70
2018-03-21T03:35:04.499Z,-2.70
2018-03-21T03:35:38.929Z,-2.70
2018-03-21T03:36:12.610Z,-2.70
2018-03-21T03:36:47.051Z,-2.70
2018-03-21T03:37:20.717Z,-2.70
2018-03-21T03:37:54.465Z,-2.70
2018-03-21T03:38:28.133Z,-2.70
2018-03-21T03:39:01.823Z,-2.70
2018-03-21T03:39:35.483Z,-2.70
2018-03-21T03:40:09.146Z,-2.70
2018-03-21T03:40:43.580Z,-2.70
2018-03-21T03:41:17.246Z,-2.80
2018-03-21T03:41:51.663Z,-2.80
2018-03-21T03:42:25.364Z,-2.80
2018-03-21T03:42:59.060Z,-2.80
2018-03-21T03:43:32.726Z,-2.80
2018-03-21T03:44:07.532Z,-2.80
2018-03-21T03:44:41.203Z,-2.80
2018-03-21T03:45:14.863Z,-2.80
2018-03-21T03:45:48.548Z,-2.80
2018-03-21T03:46:21.885Z,-2.80
2018-03-21T03:46:56.320Z,-2.80
2018-03-21T03:47:29.991Z,-2.80
2018-03-21T03:48:04.443Z,-2.80
2018-03-21T03:48:38.122Z,-2.80
2018-03-21T03:49:11.978Z,-2.80
2018-03-21T03:49:46.411Z,-2.80
2018-03-21T03:50:20.071Z,-2.80
2018-03-21T03:50:54.225Z,-2.70
2018-03-21T03:51:27.911Z,-2.70
2018-03-21T03:52:01.590Z,-2.70
2018-03-21T03:52:35.255Z,-2.70
2018-03-21T03:53:08.921Z,-2.70
2018-03-21T03:53:42.571Z,-2.70
2018-03-21T03:54:16.249Z,-2.70
2018-03-21T03:54:49.911Z,-2.70
2018-03-21T03:55:23.990Z,-2.70
2018-03-21T03:55:58.421Z,-2.70
2018-03-21T03:56:32.088Z,-2.70
2018-03-21T03:57:06.522Z,-2.70
2018-03-21T03:57:40.287Z,-2.70
2018-03-21T03:58:14.860Z,-2.70
2018-03-21T03:58:48.610Z,-2.70
2018-03-21T03:59:22.334Z,-2.70
2018-03-21T03:59:56.324Z,-2.70
2018-03-21T04:00:29.992Z,-2.70
2018-03-21T04:01:03.336Z,-2.70
2018-03-21T04:01:37.843Z,-2.70
2018-03-21T04:02:11.184Z,-2.70
2018-03-21T04:02:44.855Z,-2.70
2018-03-21T04:03:18.531Z,-2.70
2018-03-21T04:03:52.956Z,-2.70
2018-03-21T04:04:26.950Z,-2.70
2018-03-21T04:05:00.646Z,-2.70
2018-03-21T04:05:35.105Z,-2.70
2018-03-21T04:06:08.767Z,-2.70
2018-03-21T04:06:42.121Z,-2.70
2018-03-21T04:07:15.793Z,-2.70
2018-03-21T04:07:50.248Z,-2.70
2018-03-21T04:08:23.933Z,-2.80
2018-03-21T04:08:57.617Z,-2.70
2018-03-21T04:09:31.689Z,-2.70
2018-03-21T04:10:04.721Z,-2.80
2018-03-21T04:10:38.387Z,-2.80
2018-03-21T04:11:12.067Z,-2.80
2018-03-21T04:11:45.737Z,-2.80
2018-03-21T04:12:19.407Z,-2.80
2018-03-21T04:12:53.857Z,-2.80
2018-03-21T04:13:27.543Z,-2.80
2018-03-21T04:14:01.213Z,-2.80
2018-03-21T04:14:35.291Z,-2.80
2018-03-21T04:15:09.725Z,-2.80
2018-03-21T04:15:43.403Z,-2.80
2018-03-21T04:16:17.835Z,-2.80
2018-03-21T04:16:51.489Z,-2.80
2018-03-21T04:17:25.941Z,-2.80
2018-03-21T04:17:59.296Z,-2.80
2018-03-21T04:18:32.971Z,-2.80
2018-03-21T04:19:07.417Z,-2.80
2018-03-21T04:19:41.189Z,-2.80
2018-03-21T04:20:14.675Z,-2.80
2018-03-21T04:20:48.153Z,-2.80
2018-03-21T04:21:22.589Z,-2.80
2018-03-21T04:21:56.255Z,-2.80
2018-03-21T04:22:29.744Z,-2.80
2018-03-21T04:23:03.419Z,-2.80
2018-03-21T04:23:37.849Z,-2.80
2018-03-21T04:24:11.327Z,-2.80
2018-03-21T04:24:45.317Z,-2.80
2018-03-21T04:25:19.040Z,-2.80
2018-03-21T04:25:52.723Z,-2.80
2018-03-21T04:26:26.394Z,-2.80
2018-03-21T04:27:00.075Z,-2.80
2018-03-21T04:27:33.751Z,-2.80
2018-03-21T04:28:08.194Z,-2.70
2018-03-21T04:28:41.872Z,-2.70
2018-03-21T04:29:15.546Z,-2.70
2018-03-21T04:29:49.981Z,-2.70
2018-03-21T04:30:23.661Z,-2.70
2018-03-21T04:30:57.329Z,-2.60
2018-03-21T04:31:31.002Z,-2.70
2018-03-21T04:32:05.424Z,-2.60
2018-03-21T04:32:39.091Z,-2.60
2018-03-21T04:33:13.537Z,-2.60
2018-03-21T04:33:47.202Z,-2.60
2018-03-21T04:34:21.623Z,-2.60
2018-03-21T04:34:55.349Z,-2.60
2018-03-21T04:35:29.037Z,-2.60
2018-03-21T04:36:02.723Z,-2.60
2018-03-21T04:36:36.386Z,-2.50
2018-03-21T04:37:09.873Z,-2.50
2018-03-21T04:37:43.547Z,-2.50
2018-03-21T04:38:17.979Z,-2.50
2018-03-21T04:38:51.685Z,-2.50
2018-03-21T04:39:25.384Z,-2.50
2018-03-21T04:39:59.301Z,-2.40
2018-03-21T04:40:34.482Z,-2.50
2018-03-21T04:41:07.968Z,-2.50
2018-03-21T04:41:41.439Z,-2.50
2018-03-21T04:42:15.110Z,-2.50
2018-03-21T04:42:49.556Z,-2.50
2018-03-21T04:43:23.219Z,-2.50
2018-03-21T04:43:56.894Z,-2.50
2018-03-21T04:44:30.557Z,-2.50
2018-03-21T04:45:04.243Z,-2.50
2018-03-21T04:45:37.725Z,-2.50
2018-03-21T04:46:11.220Z,-2.50
2018-03-21T04:46:44.699Z,-2.60
2018-03-21T04:47:18.038Z,-2.60
2018-03-21T04:47:51.517Z,-2.60
2018-03-21T04:48:24.999Z,-2.60
2018-03-21T04:48:58.485Z,-2.60
2018-03-21T04:49:31.953Z,-2.60
2018-03-21T04:50:06.212Z,-2.60
2018-03-21T04:50:39.682Z,-2.60
2018-03-21T04:51:13.188Z,-2.60
2018-03-21T04:51:46.875Z,-2.60
2018-03-21T04:52:20.361Z,-2.60
2018-03-21T04:52:53.849Z,-2.60
2018-03-21T04:53:27.507Z,-2.60
2018-03-21T04:54:00.985Z,-2.70
2018-03-21T04:54:34.485Z,-2.60
2018-03-21T04:55:08.195Z,-2.70
2018-03-21T04:55:41.914Z,-2.70
2018-03-21T04:56:16.343Z,-2.70
2018-03-21T04:56:50.001Z,-2.70
2018-03-21T04:57:23.493Z,-2.70
2018-03-21T04:57:56.991Z,-2.70
2018-03-21T04:58:30.923Z,-2.70
2018-03-21T04:59:04.602Z,-2.70
2018-03-21T04:59:38.097Z,-2.70
2018-03-21T05:00:11.479Z,-2.70
2018-03-21T05:00:45.147Z,-2.70
2018-03-21T05:01:18.813Z,-2.70
2018-03-21T05:01:52.496Z,-2.70
2018-03-21T05:02:26.933Z,-2.70
2018-03-21T05:03:00.615Z,-2.70
2018-03-21T05:03:35.081Z,-2.70
2018-03-21T05:04:08.752Z,-2.70
2018-03-21T05:04:42.251Z,-2.70
2018-03-21T05:05:15.861Z,-2.70
2018-03-21T05:05:49.508Z,-2.70
2018-03-21T05:06:24.055Z,-2.70
2018-03-21T05:06:57.549Z,-2.60
2018-03-21T05:07:31.206Z,-2.70
2018-03-21T05:08:04.911Z,-2.60
2018-03-21T05:08:38.589Z,-2.70
2018-03-21T05:09:12.259Z,-2.60
2018-03-21T05:09:45.739Z,-2.70
2018-03-21T05:10:19.441Z,-2.60
2018-03-21T05:10:53.098Z,-2.60
2018-03-21T05:11:26.609Z,-2.60
2018-03-21T05:12:00.263Z,-2.60
2018-03-21T05:12:34.691Z,-2.60
2018-03-21T05:13:08.364Z,-2.60
2018-03-21T05:13:42.807Z,-2.60
2018-03-21T05:14:16.483Z,-2.60
2018-03-21T05:14:50.167Z,-2.60
2018-03-21T05:15:23.686Z,-2.60
2018-03-21T05:15:57.331Z,-2.50
2018-03-21T05:16:31.014Z,-2.50
2018-03-21T05:17:05.447Z,-2.50
2018-03-21T05:17:39.116Z,-2.50
2018-03-21T05:18:13.553Z,-2.50
2018-03-21T05:18:47.226Z,-2.50
2018-03-21T05:19:20.900Z,-2.50
2018-03-21T05:19:55.365Z,-2.50
2018-03-21T05:20:29.296Z,-2.50
2018-03-21T05:21:03.755Z,-2.40
2018-03-21T05:21:37.422Z,-2.40
2018-03-21T05:22:11.103Z,-2.40
2018-03-21T05:22:44.771Z,-2.40
2018-03-21T05:23:19.213Z,-2.40
2018-03-21T05:23:52.913Z,-2.40
2018-03-21T05:24:26.605Z,-2.30
2018-03-21T05:25:00.275Z,-2.30
2018-03-21T05:25:34.347Z,-2.30
2018-03-21T05:26:08.787Z,-2.20
2018-03-21T05:26:42.470Z,-2.20
2018-03-21T05:27:16.142Z,-2.20
2018-03-21T05:27:50.582Z,-2.10
2018-03-21T05:28:24.264Z,-2.10
2018-03-21T05:28:57.943Z,-2.00
2018-03-21T05:29:31.612Z,-2.00
2018-03-21T05:30:06.073Z,-1.90
2018-03-21T05:30:39.793Z,-1.90
2018-03-21T05:31:13.466Z,-1.90
2018-03-21T05:31:47.119Z,-1.80
2018-03-21T05:32:20.777Z,-1.80
2018-03-21T05:32:55.235Z,-1.70
2018-03-21T05:33:28.912Z,-1.70
2018-03-21T05:34:02.577Z,-1.60
2018-03-21T05:34:36.239Z,-1.60
2018-03-21T05:35:09.914Z,-1.50
2018-03-21T05:35:43.591Z,-1.50
2018-03-21T05:36:17.260Z,-1.40
2018-03-21T05:36:50.744Z,-1.40
2018-03-21T05:37:24.452Z,-1.30
2018-03-21T05:37:58.141Z,-1.30
2018-03-21T05:38:31.827Z,-1.20
2018-03-21T05:39:04.845Z,-1.20
2018-03-21T05:39:39.298Z,-1.10
2018-03-21T05:40:12.975Z,-1.10
2018-03-21T05:40:46.676Z,-1.00
2018-03-21T05:41:20.397Z,-1.00
2018-03-21T05:41:54.227Z,-1.00
2018-03-21T05:42:28.661Z,-0.90
2018-03-21T05:43:02.347Z,-0.90
2018-03-21T05:43:36.023Z,-0.90
2018-03-21T05:44:09.703Z,-0.80
2018-03-21T05:44:43.382Z,-0.80
2018-03-21T05:45:17.825Z,-0.70
2018-03-21T05:45:51.525Z,-0.70
2018-03-21T05:46:25.215Z,-0.70
2018-03-21T05:46:58.913Z,-0.70
2018-03-21T05:47:32.596Z,-0.60
2018-03-21T05:48:06.316Z,-0.60
2018-03-21T05:48:40.152Z,-0.50
2018-03-21T05:49:13.646Z,-0.50
2018-03-21T05:49:47.315Z,-0.50
2018-03-21T05:50:20.993Z,-0.50
2018-03-21T05:50:55.478Z,-0.40
2018-03-21T05:51:29.178Z,-0.40
2018-03-21T05:52:03.646Z,-0.40
2018-03-21T05:52:38.764Z,-0.40
2018-03-21T05:53:12.444Z,-0.40
2018-03-21T05:53:46.137Z,-0.30
2018-03-21T05:54:19.825Z,-0.30
2018-03-21T05:54:53.505Z,-0.30
2018-03-21T05:55:27.171Z,-0.30
2018-03-21T05:56:01.640Z,-0.20
2018-03-21T05:56:35.387Z,-0.20
2018-03-21T05:57:09.063Z,-0.20
2018-03-21T05:57:43.502Z,-0.20
2018-03-21T05:58:17.168Z,-0.20
2018-03-21T05:58:50.864Z,-0.20
2018-03-21T05:59:24.549Z,-0.20
2018-03-21T05:59:59.004Z,-0.10
2018-03-21T06:00:32.684Z,-0.20
2018-03-21T06:01:06.382Z,-0.10
2018-03-21T06:01:39.730Z,-0.20
2018-03-21T06:02:13.406Z,-0.10
2018-03-21T06:02:47.859Z,-0.10
2018-03-21T06:03:21.553Z,-0.10
2018-03-21T06:03:55.308Z,-0.10
2018-03-21T06:04:28.998Z,-0.10
2018-03-21T06:05:02.676Z,0.00
2018-03-21T06:05:37.866Z,0.00
2018-03-21T06:06:11.576Z,0.00
2018-03-21T06:06:45.274Z,0.00
2018-03-21T06:07:19.744Z,0.00
2018-03-21T06:07:54.389Z,0.00
2018-03-21T06:08:28.203Z,0.00
2018-03-21T06:09:01.888Z,0.10
2018-03-21T06:09:35.575Z,0.10
2018-03-21T06:10:09.256Z,0.10
2018-03-21T06:10:43.729Z,0.10
2018-03-21T06:11:17.426Z,0.10
2018-03-21T06:11:51.100Z,0.20
2018-03-21T06:12:24.779Z,0.20
2018-03-21T06:12:58.452Z,0.20
2018-03-21T06:13:32.133Z,0.20
2018-03-21T06:14:05.809Z,0.20
2018-03-21T06:14:40.250Z,0.30
2018-03-21T06:15:13.917Z,0.20
2018-03-21T06:15:47.607Z,0.30
2018-03-21T06:16:21.331Z,0.30
2018-03-21T06:16:55.026Z,0.40
2018-03-21T06:17:28.725Z,0.40
2018-03-21T06:18:02.411Z,0.40
2018-03-21T06:18:36.115Z,0.40
2018-03-21T06:19:09.779Z,0.50
2018-03-21T06:19:43.458Z,0.50
2018-03-21T06:20:17.118Z,0.50
2018-03-21T06:20:51.551Z,0.50
2018-03-21T06:21:25.033Z,0.50
2018-03-21T06:21:58.714Z,0.60
2018-03-21T06:22:32.360Z,0.60
2018-03-21T06:23:06.034Z,0.60
2018-03-21T06:23:39.513Z,0.70
2018-03-21T06:24:13.212Z,0.70
2018-03-21T06:24:46.882Z,0.70
2018-03-21T06:25:20.546Z,0.70
2018-03-21T06:25:54.227Z,0.70
2018-03-21T06:26:29.374Z,0.80
2018-03-21T06:27:03.041Z,0.80
2018-03-21T06:27:36.723Z,0.80
2018-03-21T06:28:11.172Z,0.80
2018-03-21T06:28:50.646Z,0.80
2018-03-21T06:29:25.076Z,0.90
2018-03-21T06:29:58.739Z,0.90
2018-03-21T06:30:33.172Z,0.90
2018-03-21T06:31:06.835Z,0.90
2018-03-21T06:31:40.348Z,1.00
2018-03-21T06:32:14.037Z,1.00
2018-03-21T06:32:47.712Z,1.00
2018-03-21T06:33:22.266Z,1.00
2018-03-21T06:33:55.980Z,1.00
2018-03-21T06:34:29.662Z,1.00
2018-03-21T06:35:03.336Z,1.00
2018-03-21T06:35:36.996Z,1.00
2018-03-21T06:36:10.664Z,1.00
2018-03-21T06:36:45.118Z,1.00
2018-03-21T06:37:18.796Z,1.10
2018-03-21T06:37:52.463Z,1.10
2018-03-21T06:38:26.134Z,1.10
2018-03-21T06:38:59.803Z,1.10
2018-03-21T06:39:33.502Z,1.10
2018-03-21T06:40:06.982Z,1.10
2018-03-21T06:40:41.512Z,1.10
2018-03-21T06:41:16.131Z,1.10
2018-03-21T06:41:50.584Z,1.10
2018-03-21T06:42:24.256Z,1.10
2018-03-21T06:42:57.923Z,1.10
2018-03-21T06:43:31.585Z,1.20
2018-03-21T06:44:05.286Z,1.10
2018-03-21T06:44:39.766Z,1.20
2018-03-21T06:45:14.356Z,1.20
2018-03-21T06:45:48.031Z,1.20
2018-03-21T06:46:21.711Z,1.30
2018-03-21T06:46:55.410Z,1.30
2018-03-21T06:47:29.080Z,1.30
2018-03-21T06:48:03.527Z,1.40
2018-03-21T06:48:37.212Z,1.40
2018-03-21T06:49:10.874Z,1.40
2018-03-21T06:49:44.530Z,1.40
2018-03-21T06:50:18.214Z,1.50
2018-03-21T06:50:51.563Z,1.50
2018-03-21T06:51:25.258Z,1.50
2018-03-21T06:51:58.940Z,1.60
2018-03-21T06:52:32.607Z,1.60
2018-03-21T06:53:06.284Z,1.60
2018-03-21T06:53:40.725Z,1.60
2018-03-21T06:54:14.401Z,1.60
2018-03-21T06:54:48.065Z,1.60
2018-03-21T06:55:22.502Z,1.70
2018-03-21T06:55:56.296Z,1.70
2018-03-21T06:56:29.996Z,1.70
2018-03-21T06:57:03.668Z,1.70
2018-03-21T06:57:37.346Z,1.70
2018-03-21T06:58:11.784Z,1.80
2018-03-21T06:58:45.480Z,1.70
2018-03-21T06:59:19.167Z,1.80
2018-03-21T06:59:52.848Z,1.90
2018-03-21T07:00:26.524Z,1.90
2018-03-21T07:01:00.204Z,1.90
2018-03-21T07:01:34.842Z,2.00
2018-03-21T07:02:08.512Z,2.00
2018-03-21T07:02:42.190Z,2.00
2018-03-21T07:03:16.617Z,2.10
2018-03-21T07:03:50.303Z,2.10
2018-03-21T07:04:23.991Z,2.10
2018-03-21T07:04:58.418Z,2.20
2018-03-21T07:05:32.082Z,2.20
2018-03-21T07:06:05.428Z,2.20
2018-03-21T07:06:39.435Z,2.20
2018-03-21T07:07:13.104Z,2.30
2018-03-21T07:07:46.782Z,2.30
2018-03-21T07:08:20.461Z,2.40
2018-03-21T07:08:54.122Z,2.40
2018-03-21T07:09:27.785Z,2.50
2018-03-21T07:10:02.214Z,2.60
2018-03-21T07:10:35.982Z,2.60
2018-03-21T07:11:10.424Z,2.70
2018-03-21T07:11:44.126Z,2.60
2018-03-21T07:12:17.818Z,2.70
2018-03-21T07:12:51.494Z,2.70
2018-03-21T07:13:24.496Z,2.80
2018-03-21T07:14:09.440Z,2.80
2018-03-21T07:14:54.352Z,2.80
2018-03-21T07:15:39.866Z,2.90
2018-03-21T07:16:24.556Z,2.90
2018-03-21T07:16:59.009Z,3.00
2018-03-21T07:17:32.712Z,3.00
2018-03-21T07:18:06.544Z,3.00
2018-03-21T07:18:40.270Z,3.10
2018-03-21T07:19:13.932Z,3.10
2018-03-21T07:19:48.354Z,3.20
2018-03-21T07:20:22.018Z,3.10
2018-03-21T07:20:56.462Z,3.20
2018-03-21T07:21:30.112Z,3.20